Time;durP1;ratioP1;P1;durP2;ratioP2;P2;SDS_P1;SDS_P2;PMS_P1;PMS_P2;Temp;Humidity;BMP_temperature;BMP_pressure;BME280_temperature;BME280_humidity;BME280_pressure;Samples;Min_cycle;Max_cycle;Signal;HPM_P1;HPM_P2
2021/05/01 00:01:53;;;;;;;14.68;9.60;;;409.70;2355.20;;;;;;5070577;28;20024;-65
2021/05/01 00:04:18;;;;;;;14.10;9.80;;;409.60;2355.20;;;;;;5072060;28;20036;-65
2021/05/01 00:06:44;;;;;;;13.65;9.43;;;409.60;2355.20;;;;;;5074225;28;20020;-67
2021/05/01 00:09:10;;;;;;;15.70;9.60;;;384.90;2329.60;;;;;;5072481;28;20016;-66
2021/05/01 00:11:36;;;;;;;16.05;9.23;;;384.90;2329.60;;;;;;5073874;28;20025;-65
2021/05/01 00:14:02;;;;;;;15.15;8.70;;;384.90;2329.60;;;;;;5072513;28;20020;-65
2021/05/01 00:16:28;;;;;;;14.55;8.18;;;384.80;2329.60;;;;;;5072177;28;20031;-64
2021/05/01 00:18:55;;;;;;;13.10;7.93;;;384.80;2329.60;;;;;;5070720;28;20039;-65
2021/05/01 00:21:21;;;;;;;11.75;8.05;;;384.70;2329.60;;;;;;5072143;28;20009;-63
2021/05/01 00:23:46;;;;;;;11.82;8.00;;;384.70;2329.60;;;;;;5073925;28;20017;-66
2021/05/01 00:26:12;;;;;;;11.63;7.28;;;384.70;2329.60;;;;;;5072277;28;20488;-69
2021/05/01 00:28:39;;;;;;;15.48;8.88;;;384.60;2329.60;;;;;;5082090;28;20024;-67
2021/05/01 00:31:05;;;;;;;15.30;8.93;;;384.50;2329.60;;;;;;5072493;28;20473;-65
2021/05/01 00:33:31;;;;;;;13.43;8.63;;;384.50;2329.60;;;;;;5073633;28;20054;-65
2021/05/01 00:35:58;;;;;;;15.02;9.15;;;384.50;2329.60;;;;;;5073145;28;20256;-64
2021/05/01 00:38:23;;;;;;;15.93;8.20;;;384.40;2329.60;;;;;;5072229;28;20045;-65
2021/05/01 00:40:49;;;;;;;15.35;8.80;;;384.40;2329.60;;;;;;5074059;28;20441;-64
2021/05/01 00:43:15;;;;;;;12.98;7.53;;;384.30;2329.60;;;;;;5072154;28;20029;-64
2021/05/01 00:45:40;;;;;;;16.25;9.40;;;384.40;2329.60;;;;;;5071490;28;20021;-65
2021/05/01 00:48:06;;;;;;;16.23;9.38;;;384.30;2329.60;;;;;;5065843;28;20032;-64
2021/05/01 00:50:34;;;;;;;11.23;6.80;;;384.40;2329.60;;;;;;5080112;28;20028;-64
2021/05/01 00:53:00;;;;;;;12.65;6.97;;;384.40;2329.60;;;;;;5062346;28;20020;-67
2021/05/01 00:55:26;;;;;;;12.30;7.18;;;384.40;2329.60;;;;;;5077034;28;20028;-67
2021/05/01 00:57:52;;;;;;;13.05;7.55;;;384.30;2329.60;;;;;;5080808;28;20034;-66
2021/05/01 01:00:37;;;;;;;15.18;7.70;;;384.40;2329.60;;;;;;5066400;28;20093;-66
2021/05/01 01:03:03;;;;;;;11.73;7.40;;;384.50;2329.60;;;;;;5070157;28;20028;-66
2021/05/01 01:05:29;;;;;;;10.75;6.90;;;384.60;2329.60;;;;;;5073097;28;20480;-66
2021/05/01 01:07:55;;;;;;;12.30;7.38;;;384.60;2329.60;;;;;;5073833;28;20036;-66
2021/05/01 01:10:21;;;;;;;12.27;7.25;;;384.50;2329.60;;;;;;5075977;28;20036;-66
2021/05/01 01:12:46;;;;;;;12.07;7.68;;;384.50;2329.60;;;;;;5076826;28;20024;-66
2021/05/01 01:15:28;;;;;;;12.45;7.60;;;384.60;2329.60;;;;;;5076190;28;20021;-65
2021/05/01 01:17:54;;;;;;;13.40;9.10;;;384.60;2329.60;;;;;;5075339;28;20032;-65
2021/05/01 01:20:20;;;;;;;15.20;8.68;;;384.60;2329.60;;;;;;5080613;28;20100;-65
2021/05/01 01:22:46;;;;;;;12.55;7.72;;;384.50;2329.60;;;;;;5082916;28;20473;-65
2021/05/01 01:25:12;;;;;;;13.18;7.88;;;384.50;2329.60;;;;;;5088340;28;20555;-65
2021/05/01 01:27:38;;;;;;;12.60;7.60;;;384.50;2329.60;;;;;;5087394;28;20768;-65
2021/05/01 01:30:06;;;;;;;13.23;7.93;;;384.50;2329.60;;;;;;5086299;28;20484;-65
2021/05/01 01:32:31;;;;;;;13.90;8.20;;;384.60;2329.60;;;;;;5081530;28;20100;-65
2021/05/01 01:34:57;;;;;;;11.60;7.53;;;384.60;2329.60;;;;;;5088027;28;20112;-64
2021/05/01 01:37:23;;;;;;;12.63;7.60;;;384.60;2329.60;;;;;;5093426;28;20412;-65
2021/05/01 01:39:48;;;;;;;12.48;7.28;;;384.60;2329.60;;;;;;5088879;28;20024;-65
2021/05/01 01:42:14;;;;;;;13.93;7.90;;;384.40;2329.60;;;;;;5075916;28;20036;-65
2021/05/01 01:44:40;;;;;;;12.85;7.35;;;384.40;2329.60;;;;;;5075723;28;20389;-65
2021/05/01 01:47:05;;;;;;;12.80;7.53;;;384.40;2329.60;;;;;;5075092;28;20032;-65
2021/05/01 01:49:34;;;;;;;14.55;8.35;;;384.40;2329.60;;;;;;5076086;28;20045;-65
2021/05/01 01:52:00;;;;;;;14.07;8.50;;;384.40;2329.60;;;;;;5074786;28;20428;-64
2021/05/01 01:54:26;;;;;;;13.18;8.90;;;384.40;2329.60;;;;;;5074870;28;20021;-65
2021/05/01 01:56:52;;;;;;;14.75;9.00;;;384.40;2329.60;;;;;;5073607;28;20103;-64
2021/05/01 01:59:17;;;;;;;13.02;8.98;;;384.40;2329.60;;;;;;5072529;28;20047;-65
2021/05/01 02:01:43;;;;;;;15.93;8.95;;;384.50;2329.60;;;;;;5073269;28;20062;-64
2021/05/01 02:04:09;;;;;;;15.55;9.18;;;384.50;2329.60;;;;;;5074581;28;20020;-64
2021/05/01 02:06:34;;;;;;;16.40;8.95;;;384.50;2329.60;;;;;;5072328;28;20488;-65
2021/05/01 02:09:00;;;;;;;13.88;8.93;;;384.50;2329.60;;;;;;5073767;28;20020;-65
2021/05/01 02:11:26;;;;;;;14.20;9.13;;;384.50;2329.60;;;;;;5074628;28;20458;-66
2021/05/01 02:13:52;;;;;;;14.80;8.90;;;384.50;2329.60;;;;;;5073307;28;20029;-66
2021/05/01 02:16:17;;;;;;;12.98;8.80;;;384.50;2329.60;;;;;;5072293;28;20025;-66
2021/05/01 02:18:43;;;;;;;15.13;8.43;;;384.40;2329.60;;;;;;5074246;28;20036;-66
2021/05/01 02:21:09;;;;;;;16.38;8.68;;;384.40;2329.60;;;;;;5074768;28;20024;-64
2021/05/01 02:23:35;;;;;;;16.45;8.50;;;384.40;2329.60;;;;;;5071847;28;20393;-64
2021/05/01 02:26:01;;;;;;;14.77;8.70;;;384.50;2329.60;;;;;;5074059;28;20495;-65
2021/05/01 02:28:27;;;;;;;13.85;7.97;;;384.40;2329.60;;;;;;5074791;28;20114;-65
2021/05/01 02:30:52;;;;;;;12.32;7.63;;;384.40;2329.60;;;;;;5070592;28;20121;-65
2021/05/01 02:33:18;;;;;;;11.98;7.43;;;384.30;2329.60;;;;;;5085346;28;20024;-73
2021/05/01 02:35:44;;;;;;;12.63;7.85;;;384.20;2329.60;;;;;;5078527;28;20483;-71
2021/05/01 02:38:10;;;;;;;13.95;8.50;;;384.00;2329.60;;;;;;5092288;28;20101;-70
2021/05/01 02:40:36;;;;;;;13.60;10.35;;;359.10;2329.60;;;;;;5091742;28;20477;-63
2021/05/01 02:43:07;;;;;;;15.45;9.65;;;359.00;2329.60;;;;;;5092220;28;20025;-70
2021/05/01 02:45:34;;;;;;;15.00;9.50;;;358.90;2329.60;;;;;;5092061;28;20027;-65
2021/05/01 02:48:01;;;;;;;13.93;9.00;;;358.90;2329.60;;;;;;5092507;28;20055;-65
2021/05/01 02:50:27;;;;;;;15.82;9.15;;;358.80;2329.60;;;;;;5091396;28;20016;-74
2021/05/01 02:52:52;;;;;;;14.57;8.80;;;358.80;2329.60;;;;;;5092206;28;20388;-68
2021/05/01 02:55:18;;;;;;;13.98;8.63;;;358.90;2329.60;;;;;;5091801;28;20066;-65
2021/05/01 02:57:44;;;;;;;17.13;8.68;;;358.90;2329.60;;;;;;5092134;28;20027;-75
2021/05/01 03:00:13;;;;;;;14.32;8.60;;;359.00;2329.60;;;;;;5091786;28;20879;-70
2021/05/01 03:02:39;;;;;;;13.07;7.70;;;359.00;2329.60;;;;;;5082592;28;20012;-76
2021/05/01 03:05:07;;;;;;;13.50;7.60;;;359.10;2329.60;;;;;;5082321;28;20065;-70
2021/05/01 03:07:33;;;;;;;9.13;6.90;;;359.10;2329.60;;;;;;5089899;28;20481;-75
2021/05/01 03:09:58;;;;;;;13.10;6.95;;;359.10;2329.60;;;;;;5091542;28;20091;-74
2021/05/01 03:12:24;;;;;;;11.70;7.07;;;359.10;2329.60;;;;;;5091500;28;20392;-71
2021/05/01 03:14:50;;;;;;;12.20;7.13;;;359.20;2329.60;;;;;;5091668;28;20492;-70
2021/05/01 03:17:16;;;;;;;11.93;7.47;;;359.20;2329.60;;;;;;5073526;28;20024;-66
2021/05/01 03:19:42;;;;;;;11.63;7.82;;;359.20;2329.60;;;;;;5090966;28;20044;-65
2021/05/01 03:22:07;;;;;;;10.27;7.10;;;359.20;2329.60;;;;;;5091677;28;20036;-66
2021/05/01 03:24:34;;;;;;;12.82;7.13;;;359.20;2329.60;;;;;;5091403;28;20058;-66
2021/05/01 03:27:00;;;;;;;14.15;8.50;;;359.20;2329.60;;;;;;5090787;28;20024;-65
2021/05/01 03:29:26;;;;;;;17.45;9.23;;;359.10;2329.60;;;;;;5090767;28;20031;-66
2021/05/01 03:31:51;;;;;;;14.00;8.18;;;359.10;2329.60;;;;;;5087085;28;20027;-66
2021/05/01 03:34:17;;;;;;;13.43;8.15;;;359.20;2329.60;;;;;;5080385;28;20063;-69
2021/05/01 03:36:43;;;;;;;19.77;10.35;;;359.20;2329.60;;;;;;5076634;28;20047;-70
2021/05/01 03:39:08;;;;;;;19.58;11.05;;;359.10;2329.60;;;;;;5090803;28;20078;-65
2021/05/01 03:41:34;;;;;;;17.42;9.57;;;359.10;2329.60;;;;;;5090952;28;20024;-70
2021/05/01 03:44:00;;;;;;;19.25;10.32;;;359.10;2329.60;;;;;;5091217;28;20021;-70
2021/05/01 03:46:26;;;;;;;16.10;9.73;;;359.10;2329.60;;;;;;5090976;28;20838;-66
2021/05/01 03:48:52;;;;;;;15.25;10.05;;;359.10;2329.60;;;;;;5090751;28;20464;-71
2021/05/01 03:51:18;;;;;;;16.13;8.52;;;359.10;2329.60;;;;;;5090864;28;20035;-70
2021/05/01 03:53:44;;;;;;;14.55;8.70;;;359.20;2329.60;;;;;;5090654;28;20091;-65
2021/05/01 03:56:09;;;;;;;12.88;7.80;;;359.20;2329.60;;;;;;5091001;28;20477;-66
2021/05/01 03:58:35;;;;;;;13.68;7.80;;;359.20;2329.60;;;;;;5090704;28;20419;-64
2021/05/01 04:01:01;;;;;;;13.80;7.50;;;359.20;2329.60;;;;;;5088984;28;20373;-70
2021/05/01 04:03:27;;;;;;;14.35;8.30;;;359.30;2329.60;;;;;;5086025;28;20103;-72
2021/05/01 04:05:52;;;;;;;19.67;10.10;;;359.30;2329.60;;;;;;5091097;28;20258;-70
2021/05/01 04:08:18;;;;;;;16.70;10.50;;;359.30;2329.60;;;;;;5090846;28;20024;-68
2021/05/01 04:10:44;;;;;;;24.63;15.93;;;384.00;2329.60;;;;;;5090319;28;20095;-66
2021/05/01 04:13:10;;;;;;;26.92;17.30;;;384.00;2329.60;;;;;;5091061;28;20028;-75
2021/05/01 04:15:36;;;;;;;23.50;14.20;;;384.00;2329.60;;;;;;5090676;28;20048;-72
2021/05/01 04:18:02;;;;;;;24.30;14.20;;;384.10;2329.60;;;;;;5091178;28;20032;-74
2021/05/01 04:20:28;;;;;;;24.83;16.75;;;384.20;2329.60;;;;;;5090043;28;20446;-71
2021/05/01 04:22:53;;;;;;;27.02;15.25;;;384.20;2329.60;;;;;;5090780;28;20060;-66
2021/05/01 04:25:19;;;;;;;24.92;14.73;;;384.20;2329.60;;;;;;5090449;28;20036;-66
2021/05/01 04:27:45;;;;;;;30.05;17.88;;;384.30;2329.60;;;;;;5090397;28;20024;-69
2021/05/01 04:30:12;;;;;;;25.02;15.70;;;384.40;2329.60;;;;;;5090352;28;20020;-71
2021/05/01 04:32:38;;;;;;;24.02;15.52;;;384.50;2329.60;;;;;;5082858;28;20024;-72
2021/05/01 04:35:05;;;;;;;25.00;14.60;;;384.70;2329.60;;;;;;5090750;28;20040;-70
2021/05/01 04:37:31;;;;;;;25.23;14.85;;;409.60;2355.20;;;;;;5090258;28;20136;-74
2021/05/01 04:39:57;;;;;;;28.23;17.45;;;409.70;2355.20;;;;;;5093642;28;20469;-71
2021/05/01 04:42:23;;;;;;;27.60;15.98;;;410.00;2355.20;;;;;;5094511;28;20024;-65
2021/05/01 04:44:49;;;;;;;24.77;16.67;;;410.20;2355.20;;;;;;5094348;28;20024;-65
2021/05/01 04:47:16;;;;;;;27.77;16.67;;;410.40;2355.20;;;;;;5094520;28;20063;-64
2021/05/01 04:49:42;;;;;;;28.55;17.73;;;435.20;2355.20;;;;;;5094485;28;20035;-66
2021/05/01 04:52:08;;;;;;;30.98;17.50;;;435.40;2355.20;;;;;;5094037;28;20032;-65
2021/05/01 04:54:33;;;;;;;27.00;17.42;;;435.50;2355.20;;;;;;5094137;28;20028;-65
2021/05/01 04:56:59;;;;;;;25.80;16.25;;;435.60;2355.20;;;;;;5094204;28;20016;-64
2021/05/01 04:59:25;;;;;;;23.20;15.75;;;435.60;2355.20;;;;;;5093866;28;20025;-69
2021/05/01 05:01:51;;;;;;;24.77;16.40;;;435.80;2355.20;;;;;;5087342;28;20043;-66
2021/05/01 05:04:16;;;;;;;26.42;16.15;;;435.90;2355.20;;;;;;5094134;28;20024;-65
2021/05/01 05:06:42;;;;;;;26.00;18.27;;;435.90;2355.20;;;;;;5094130;28;20031;-74
2021/05/01 05:09:08;;;;;;;20.75;14.00;;;436.10;2355.20;;;;;;5093853;28;20028;-65
2021/05/01 05:11:34;;;;;;;31.33;18.77;;;460.80;2380.80;;;;;;5093937;28;20031;-65
2021/05/01 05:14:01;;;;;;;23.00;14.20;;;460.80;2380.80;;;;;;5093947;28;20464;-73
2021/05/01 05:16:27;;;;;;;21.40;13.32;;;460.80;2380.80;;;;;;5093764;28;20376;-74
2021/05/01 05:18:55;;;;;;;21.02;13.00;;;435.90;2355.20;;;;;;5093518;28;20020;-65
2021/05/01 05:21:21;;;;;;;23.83;13.90;;;435.80;2355.20;;;;;;5093997;28;20052;-66
2021/05/01 05:23:47;;;;;;;29.75;17.08;;;435.80;2355.20;;;;;;5093824;28;20480;-66
2021/05/01 05:26:12;;;;;;;34.78;21.23;;;435.90;2355.20;;;;;;5093619;28;20229;-67
2021/05/01 05:28:38;;;;;;;29.17;16.92;;;436.00;2355.20;;;;;;5093581;28;20115;-64
2021/05/01 05:31:04;;;;;;;16.20;11.10;;;460.80;2380.80;;;;;;5093395;28;20028;-68
2021/05/01 05:33:30;;;;;;;24.25;15.88;;;461.00;2380.80;;;;;;5085913;28;20480;-74
2021/05/01 05:35:56;;;;;;;30.17;18.10;;;461.10;2380.80;;;;;;5093254;28;20028;-74
2021/05/01 05:38:22;;;;;;;38.92;20.60;;;461.10;2380.80;;;;;;5080241;28;20446;-68
2021/05/01 05:40:47;;;;;;;26.25;16.52;;;461.00;2380.80;;;;;;5093111;28;20032;-74
2021/05/01 05:43:13;;;;;;;27.65;17.00;;;461.00;2380.80;;;;;;5093051;28;20081;-74
2021/05/01 05:45:41;;;;;;;22.58;14.70;;;460.90;2380.80;;;;;;5093379;28;20024;-65
2021/05/01 05:48:07;;;;;;;21.95;15.13;;;460.80;2380.80;;;;;;5093358;28;20036;-69
2021/05/01 05:50:33;;;;;;;23.42;14.70;;;460.80;2380.80;;;;;;5092170;28;20336;-65
2021/05/01 05:52:59;;;;;;;27.83;17.27;;;460.90;2380.80;;;;;;5075196;28;20388;-65
2021/05/01 05:55:26;;;;;;;24.95;16.70;;;461.10;2380.80;;;;;;5092909;28;20020;-65
2021/05/01 05:57:54;;;;;;;19.88;11.40;;;461.10;2380.80;;;;;;5093266;28;20408;-66
2021/05/01 06:00:23;;;;;;;19.95;12.02;;;461.10;2380.80;;;;;;5093052;28;20027;-68
2021/05/01 06:02:51;;;;;;;24.90;14.68;;;461.20;2380.80;;;;;;5086211;28;20035;-68
2021/05/01 06:05:35;;;;;;;25.95;14.82;;;461.20;2380.80;;;;;;5092771;28;20370;-65
2021/05/01 06:08:05;;;;;;;25.98;15.93;;;461.20;2380.80;;;;;;5093180;28;20024;-73
2021/05/01 06:10:32;;;;;;;20.90;13.07;;;461.40;2380.80;;;;;;5092787;28;20020;-65
2021/05/01 06:12:59;;;;;;;21.27;13.65;;;461.40;2380.80;;;;;;5093061;28;20032;-65
2021/05/01 06:15:25;;;;;;;22.90;15.13;;;461.50;2380.80;;;;;;5092519;28;20468;-65
2021/05/01 06:17:56;;;;;;;27.13;14.35;;;461.60;2380.80;;;;;;5092738;28;20032;-64
2021/05/01 06:20:22;;;;;;;;;;;486.40;2380.80;;;;;;5092868;28;20128;-64
2021/05/01 06:22:51;;;;;;;31.88;20.17;;;486.50;2380.80;;;;;;5091822;28;20380;-64
2021/05/01 06:25:17;;;;;;;29.45;19.02;;;486.60;2380.80;;;;;;5092276;28;20066;-64
2021/05/01 06:27:43;;;;;;;23.50;16.02;;;486.80;2380.80;;;;;;5092278;28;20020;-64
2021/05/01 06:30:11;;;;;;;24.88;14.82;;;486.90;2380.80;;;;;;5081472;28;20025;-70
2021/05/01 06:32:37;;;;;;;26.30;15.40;;;487.00;2380.80;;;;;;5082026;28;20121;-66
2021/05/01 06:35:05;;;;;;;22.63;14.35;;;487.20;2380.80;;;;;;5092354;28;20024;-66
2021/05/01 06:37:31;;;;;;;27.25;14.90;;;487.30;2380.80;;;;;;5091884;28;20101;-64
2021/05/01 06:40:05;;;;;;;24.45;14.80;;;512.10;2380.80;;;;;;5092058;28;20047;-65
2021/05/01 06:42:36;;;;;;;19.45;11.52;;;512.40;2380.80;;;;;;5092385;28;20028;-73
2021/05/01 06:45:03;;;;;;;19.55;10.38;;;512.40;2380.80;;;;;;5092406;28;20020;-65
2021/05/01 06:47:32;;;;;;;14.57;8.93;;;512.70;2380.80;;;;;;5091982;28;20024;-64
2021/05/01 06:50:11;;;;;;;14.55;9.45;;;512.80;2380.80;;;;;;5091626;28;20032;-65
2021/05/01 06:52:39;;;;;;;15.50;9.00;;;512.80;2380.80;;;;;;5091823;28;20115;-70
2021/05/01 06:55:06;;;;;;;16.35;9.40;;;512.90;2380.80;;;;;;5091798;28;20024;-65
2021/05/01 06:57:35;;;;;;;13.98;8.18;;;512.70;2380.80;;;;;;5091664;28;20115;-65
2021/05/01 07:00:01;;;;;;;17.67;8.30;;;512.90;2380.80;;;;;;5091409;28;20084;-65
2021/05/01 07:02:37;;;;;;;29.67;17.08;;;537.70;2406.40;;;;;;5084482;28;20056;-74
2021/05/01 07:05:03;;;;;;;15.60;9.27;;;537.90;2406.40;;;;;;5091999;28;20114;-64
2021/05/01 07:07:29;;;;;;;19.25;8.88;;;538.10;2380.80;;;;;;5091504;28;20251;-66
2021/05/01 07:09:56;;;;;;;15.55;7.97;;;538.00;2355.20;;;;;;5091719;28;20046;-64
2021/05/01 07:12:24;;;;;;;16.60;9.07;;;538.00;2329.60;;;;;;5091256;28;20099;-65
2021/05/01 07:14:50;;;;;;;17.00;9.52;;;538.00;2304.00;;;;;;5092039;28;20494;-64
2021/05/01 07:17:17;;;;;;;16.17;8.70;;;538.00;2355.20;;;;;;5090965;28;20032;-65
2021/05/01 07:19:44;;;;;;;16.05;10.48;;;538.00;2329.60;;;;;;5091637;28;20103;-65
2021/05/01 07:22:11;;;;;;;17.45;8.73;;;538.00;2329.60;;;;;;5091074;28;20031;-68
2021/05/01 07:24:37;;;;;;;14.70;9.35;;;538.20;2278.40;;;;;;5088323;28;20082;-65
2021/05/01 07:27:04;;;;;;;17.02;9.52;;;563.20;2278.40;;;;;;5071872;28;20037;-63
2021/05/01 07:29:38;;;;;;;19.25;9.05;;;563.60;2227.20;;;;;;5077134;28;20103;-64
2021/05/01 07:32:05;;;;;;;17.48;8.48;;;563.70;2201.60;;;;;;5075816;28;20016;-65
2021/05/01 07:34:33;;;;;;;16.85;8.02;;;563.70;2176.00;;;;;;5073851;28;20024;-64
2021/05/01 07:37:05;;;;;;;23.05;10.18;;;563.80;2176.00;;;;;;5076858;28;20060;-63
2021/05/01 07:39:31;;;;;;;20.10;9.40;;;563.90;2150.40;;;;;;5083246;28;20020;-66
2021/05/01 07:42:02;;;;;;;20.90;11.73;;;564.10;2124.80;;;;;;5091087;28;20028;-66
2021/05/01 07:44:31;;;;;;;20.35;10.32;;;564.10;2099.20;;;;;;5090293;28;20388;-64
2021/05/01 07:47:01;;;;;;;20.65;10.77;;;564.00;2099.20;;;;;;5088388;28;20027;-64
2021/05/01 07:49:28;;;;;;;24.02;11.02;;;588.80;2073.60;;;;;;5088585;28;20073;-63
2021/05/01 07:51:55;;;;;;;15.82;7.93;;;588.90;2124.80;;;;;;5087068;28;20036;-63
2021/05/01 07:54:21;;;;;;;15.65;8.02;;;589.30;1971.20;;;;;;5062330;28;20500;-65
2021/05/01 07:56:47;;;;;;;17.33;8.65;;;589.60;1945.60;;;;;;5085117;28;20024;-64
2021/05/01 07:59:14;;;;;;;18.23;9.73;;;589.70;1920.00;;;;;;5067796;28;20470;-64
2021/05/01 08:01:42;;;;;;;16.73;9.80;;;614.70;1868.80;;;;;;5056945;28;20025;-65
2021/05/01 08:04:10;;;;;;;17.90;9.07;;;614.80;1843.20;;;;;;5057384;28;20028;-67
2021/05/01 08:06:36;;;;;;;19.50;9.18;;;614.60;1868.80;;;;;;5053550;28;20029;-68
2021/05/01 08:09:03;;;;;;;18.33;8.60;;;614.70;1868.80;;;;;;5055715;28;20017;-64
2021/05/01 08:11:29;;;;;;;16.60;8.65;;;614.60;1817.60;;;;;;5052117;28;20489;-67
2021/05/01 08:13:55;;;;;;;18.77;8.73;;;614.50;1817.60;;;;;;5056166;28;20033;-64
2021/05/01 08:16:20;;;;;;;17.02;8.60;;;614.90;1817.60;;;;;;5077409;28;20442;-63
2021/05/01 08:18:46;;;;;;;16.42;8.50;;;614.90;1792.00;;;;;;5078791;28;20036;-64
2021/05/01 08:21:12;;;;;;;14.30;7.95;;;615.10;1792.00;;;;;;5077702;28;20113;-67
2021/05/01 08:23:38;;;;;;;14.82;7.82;;;615.30;1766.40;;;;;;5077617;28;20105;-64
2021/05/01 08:26:05;;;;;;;13.52;7.60;;;615.20;1766.40;;;;;;5077901;28;20028;-64
2021/05/01 08:28:31;;;;;;;16.80;7.93;;;615.00;1740.80;;;;;;5076397;28;20469;-72
2021/05/01 08:30:57;;;;;;;18.10;7.72;;;615.30;1740.80;;;;;;5079083;28;20024;-70
2021/05/01 08:33:23;;;;;;;14.93;7.88;;;640.30;1715.20;;;;;;5078855;28;20024;-68
2021/05/01 08:35:49;;;;;;;16.33;7.22;;;640.60;1715.20;;;;;;5080280;28;20021;-69
2021/05/01 08:38:15;;;;;;;28.23;17.52;;;640.90;1664.00;;;;;;5070284;28;20072;-69
2021/05/01 08:40:41;;;;;;;36.75;18.33;;;665.60;1664.00;;;;;;5063871;28;20037;-73
2021/05/01 08:43:07;;;;;;;20.63;10.35;;;666.10;1638.40;;;;;;5060732;28;20025;-68
2021/05/01 08:45:33;;;;;;;24.58;13.70;;;666.10;1612.80;;;;;;5057897;28;20063;-69
2021/05/01 08:48:00;;;;;;;30.45;17.38;;;691.30;1638.40;;;;;;5067560;28;20032;-73
2021/05/01 08:50:26;;;;;;;20.08;9.75;;;691.20;1612.80;;;;;;5076059;28;20058;-73
2021/05/01 08:52:56;;;;;;;20.55;10.18;;;691.30;1612.80;;;;;;5076730;28;20028;-64
2021/05/01 08:55:23;;;;;;;17.92;10.27;;;691.60;1587.20;;;;;;5081745;28;20357;-69
2021/05/01 08:57:49;;;;;;;18.05;8.60;;;691.70;1561.60;;;;;;5078499;28;20025;-69
2021/05/01 09:00:15;;;;;;;15.48;7.60;;;691.90;1536.00;;;;;;5079452;28;20051;-64
2021/05/01 09:02:41;;;;;;;13.88;7.80;;;691.70;1587.20;;;;;;5077332;28;20029;-74
2021/05/01 09:05:11;;;;;;;17.58;7.93;;;691.80;1587.20;;;;;;5070000;28;20566;-70
2021/05/01 09:07:40;;;;;;;16.35;7.03;;;692.10;1587.20;;;;;;5061586;28;20446;-65
2021/05/01 09:10:07;;;;;;;18.42;7.10;;;691.60;1561.60;;;;;;5056591;28;20025;-74
2021/05/01 09:12:42;;;;;;;16.63;7.18;;;691.70;1561.60;;;;;;5062328;28;20016;-70
2021/05/01 09:15:17;;;;;;;15.20;7.65;;;692.10;1536.00;;;;;;5078357;28;20075;-68
2021/05/01 09:17:46;;;;;;;14.40;7.82;;;692.00;1510.40;;;;;;5076795;28;20499;-74
2021/05/01 09:20:17;;;;;;;16.83;7.90;;;691.80;1536.00;;;;;;5074495;28;20051;-75
2021/05/01 09:22:57;;;;;;;14.27;5.85;;;716.90;1561.60;;;;;;5059082;28;20032;-64
2021/05/01 09:25:31;;;;;;;16.67;5.90;;;717.10;1484.80;;;;;;5054687;28;20028;-68
2021/05/01 09:28:14;;;;;;;15.15;5.05;;;716.90;1484.80;;;;;;5065000;28;20060;-66
2021/05/01 09:30:41;;;;;;;11.00;4.13;;;716.90;1433.60;;;;;;5056805;28;20033;-65
2021/05/01 09:33:33;;;;;;;15.35;4.95;;;717.20;1433.60;;;;;;5056773;28;20025;-71
2021/05/01 09:36:13;;;;;;;13.93;5.20;;;717.10;1433.60;;;;;;5054315;28;20111;-71
2021/05/01 09:39:07;;;;;;;13.68;5.85;;;717.50;1408.00;;;;;;5065633;28;20394;-69
2021/05/01 09:41:35;;;;;;;10.77;4.60;;;717.70;1382.40;;;;;;5079407;28;20028;-69
2021/05/01 09:44:06;;;;;;;10.68;4.15;;;717.30;1356.80;;;;;;5060867;28;20028;-70
2021/05/01 09:46:42;;;;;;;13.45;5.03;;;716.90;1382.40;;;;;;5069021;28;20035;-65
2021/05/01 09:49:09;;;;;;;17.25;5.28;;;717.40;1382.40;;;;;;5077330;28;20393;-69
2021/05/01 09:51:55;;;;;;;12.93;4.20;;;717.20;1382.40;;;;;;5078332;28;20021;-68
2021/05/01 09:54:35;;;;;;;15.13;5.15;;;717.30;1382.40;;;;;;5069448;28;20039;-68
2021/05/01 09:57:04;;;;;;;12.40;4.57;;;717.30;1356.80;;;;;;5073610;28;20020;-69
2021/05/01 09:59:46;;;;;;;12.70;4.43;;;717.30;1356.80;;;;;;5072971;28;20064;-68
2021/05/01 10:02:17;;;;;;;11.85;4.35;;;716.90;1382.40;;;;;;5072397;28;20361;-66
2021/05/01 10:05:01;;;;;;;14.15;6.18;;;691.90;1356.80;;;;;;5073033;28;20107;-71
2021/05/01 10:07:27;;;;;;;12.02;3.80;;;692.10;1356.80;;;;;;5077259;28;20084;-68
2021/05/01 10:09:55;;;;;;;15.18;4.72;;;691.80;1382.40;;;;;;5072309;28;20031;-64
2021/05/01 10:12:22;;;;;;;11.70;4.63;;;691.80;1382.40;;;;;;5053572;28;20031;-65
2021/05/01 10:14:53;;;;;;;11.18;4.60;;;716.80;1408.00;;;;;;5066459;28;20050;-69
2021/05/01 10:17:21;;;;;;;12.45;4.80;;;717.30;1356.80;;;;;;5067512;28;20028;-63
2021/05/01 10:19:50;;;;;;;17.70;5.60;;;717.50;1356.80;;;;;;5070442;28;20032;-67
2021/05/01 10:22:26;;;;;;;20.02;7.57;;;742.40;1382.40;;;;;;5075080;28;20119;-63
2021/05/01 10:24:53;;;;;;;14.25;5.35;;;742.70;1356.80;;;;;;5073904;28;20028;-65
2021/05/01 10:27:19;;;;;;;12.75;5.88;;;742.50;1331.20;;;;;;5071653;28;20085;-70
2021/05/01 10:30:13;;;;;;;15.93;5.20;;;742.40;1331.20;;;;;;5071250;28;20445;-66
2021/05/01 10:32:51;;;;;;;13.88;5.20;;;742.40;1305.60;;;;;;5071775;28;20027;-69
2021/05/01 10:35:18;;;;;;;13.05;5.38;;;742.60;1305.60;;;;;;5071634;28;20375;-65
2021/05/01 10:37:57;;;;;;;16.75;5.78;;;742.40;1305.60;;;;;;5071311;28;20508;-68
2021/05/01 10:40:39;;;;;;;13.93;5.60;;;742.50;1280.00;;;;;;5071200;28;20424;-65
2021/05/01 10:43:16;;;;;;;15.68;4.80;;;742.70;1280.00;;;;;;5055174;28;20107;-65
2021/05/01 10:45:52;;;;;;;14.85;5.78;;;743.10;1254.40;;;;;;5072426;28;20036;-65
2021/05/01 10:48:18;;;;;;;14.15;4.97;;;742.90;1254.40;;;;;;5073513;28;20032;-70
2021/05/01 10:50:45;;;;;;;10.80;4.75;;;742.70;1228.80;;;;;;5071977;28;20534;-70
2021/05/01 10:53:21;;;;;;;12.52;5.85;;;742.50;1254.40;;;;;;5069540;28;20409;-65
2021/05/01 10:55:49;;;;;;;15.25;5.32;;;717.50;1254.40;;;;;;5063698;28;20120;-65
2021/05/01 10:58:31;;;;;;;13.27;5.60;;;717.20;1280.00;;;;;;5064507;28;20029;-65
2021/05/01 11:00:57;;;;;;;14.65;5.85;;;717.40;1280.00;;;;;;5054858;28;20052;-65
2021/05/01 11:03:24;;;;;;;16.92;5.70;;;717.40;1254.40;;;;;;5055405;28;20134;-64
2021/05/01 11:05:56;;;;;;;14.05;5.55;;;717.70;1254.40;;;;;;5052513;28;20025;-64
2021/05/01 11:08:44;;;;;;;17.23;7.30;;;717.60;1228.80;;;;;;5071459;28;20447;-64
2021/05/01 11:11:13;;;;;;;14.48;5.57;;;742.40;1254.40;;;;;;5070669;28;20024;-66
2021/05/01 11:13:47;;;;;;;14.30;5.45;;;742.40;1254.40;;;;;;5072610;28;20016;-66
2021/05/01 11:16:17;;;;;;;13.35;5.15;;;717.70;1254.40;;;;;;5073806;28;20031;-65
2021/05/01 11:18:44;;;;;;;13.65;4.88;;;742.40;1280.00;;;;;;5086429;28;20032;-65
2021/05/01 11:21:11;;;;;;;16.17;5.22;;;717.50;1254.40;;;;;;5067420;28;20116;-64
2021/05/01 11:23:38;;;;;;;17.80;5.93;;;717.50;1228.80;;;;;;5070040;28;20504;-64
2021/05/01 11:26:09;;;;;;;17.70;6.72;;;717.50;1228.80;;;;;;5077816;28;20077;-68
2021/05/01 11:28:38;;;;;;;17.27;6.25;;;717.50;1254.40;;;;;;5085551;28;20103;-69
2021/05/01 11:31:04;;;;;;;13.82;5.88;;;717.20;1254.40;;;;;;5073732;28;20419;-67
2021/05/01 11:33:32;;;;;;;18.45;8.25;;;716.90;1280.00;;;;;;5069566;28;20020;-66
2021/05/01 11:35:58;;;;;;;30.48;15.20;;;717.10;1280.00;;;;;;5076531;28;20028;-67
2021/05/01 11:38:38;;;;;;;21.42;9.23;;;717.10;1280.00;;;;;;5079876;28;20040;-66
2021/05/01 11:41:09;;;;;;;18.05;8.13;;;717.10;1280.00;;;;;;5053438;28;20115;-66
2021/05/01 11:43:38;;;;;;;16.50;6.10;;;716.90;1280.00;;;;;;5070757;28;20036;-67
2021/05/01 11:46:56;;;;;;;13.60;5.93;;;692.10;1254.40;;;;;;5068453;28;20039;-68
2021/05/01 11:49:24;;;;;;;24.00;13.82;;;691.90;1254.40;;;;;;4989831;28;20134;-67
2021/05/01 11:52:01;;;;;;;31.48;19.15;;;691.80;1254.40;;;;;;4986380;28;20076;-68
2021/05/01 11:54:54;;;;;;;23.58;10.93;;;691.80;1254.40;;;;;;5032600;28;20127;-64
2021/05/01 11:57:44;;;;;;;17.83;8.52;;;691.90;1280.00;;;;;;5070198;28;20025;-63
2021/05/01 12:00:12;;;;;;;22.85;12.77;;;691.80;1254.40;;;;;;5067614;28;20060;-66
2021/05/01 12:02:42;;;;;;;40.33;22.77;;;691.70;1280.00;;;;;;5052783;28;20036;-65
2021/05/01 12:05:18;;;;;;;;;;;691.70;1280.00;;;;;;5057015;28;20033;-64
2021/05/01 12:07:56;;;;;;;27.33;14.60;;;691.70;1280.00;;;;;;5075603;28;19969;-64
2021/05/01 12:10:24;;;;;;;15.48;7.68;;;691.80;1280.00;;;;;;5084303;28;20432;-65
2021/05/01 12:13:00;;;;;;;26.42;12.32;;;691.80;1254.40;;;;;;5087742;28;20024;-65